createdAt,value
2023-02-22T00:02:14.055Z,25.00
2023-02-22T00:04:41.925Z,23.50
2023-02-22T00:07:09.819Z,23.00
2023-02-22T00:09:37.957Z,24.00
2023-02-22T00:12:06.010Z,27.00
2023-02-22T00:14:33.914Z,24.50
2023-02-22T00:17:02.513Z,29.00
2023-02-22T00:19:31.239Z,28.00
2023-02-22T00:24:29.516Z,29.00
2023-02-22T00:26:57.574Z,30.50
2023-02-22T00:29:26.275Z,32.00
2023-02-22T00:31:54.372Z,24.00
2023-02-22T00:34:24.199Z,27.00
2023-02-22T00:36:52.167Z,25.50
2023-02-22T00:39:20.393Z,24.00
2023-02-22T00:41:49.810Z,26.00
2023-02-22T00:44:17.829Z,23.00
2023-02-22T00:46:46.561Z,22.00
2023-02-22T00:49:17.029Z,20.33
2023-02-22T00:51:45.562Z,18.67
2023-02-22T00:54:14.473Z,23.00
2023-02-22T00:56:42.769Z,18.00
2023-02-22T00:59:10.661Z,22.00
2023-02-22T01:01:38.654Z,19.00
2023-02-22T01:04:06.936Z,23.00
2023-02-22T01:06:34.951Z,22.00
2023-02-22T01:09:03.713Z,18.00
2023-02-22T01:11:31.665Z,21.00
2023-02-22T01:14:00.530Z,16.00
2023-02-22T01:16:28.448Z,17.50
2023-02-22T01:18:56.440Z,21.00
2023-02-22T01:21:24.368Z,19.00
2023-02-22T01:23:52.573Z,15.00
2023-02-22T01:26:20.771Z,23.00
2023-02-22T01:28:48.566Z,21.50
2023-02-22T01:31:16.814Z,21.00
2023-02-22T01:33:44.861Z,22.50
2023-02-22T01:36:12.672Z,18.00
2023-02-22T01:38:40.776Z,17.00
2023-02-22T01:41:08.849Z,19.50
2023-02-22T01:43:38.632Z,18.00
2023-02-22T01:46:21.217Z,19.50
2023-02-22T01:48:59.426Z,20.00
2023-02-22T01:51:32.708Z,19.50
2023-02-22T01:54:09.935Z,20.00
2023-02-22T01:56:41.649Z,20.50
2023-02-22T01:59:12.633Z,22.50
2023-02-22T02:04:16.529Z,24.50
2023-02-22T02:06:45.861Z,28.00
2023-02-22T02:09:26.802Z,20.00
2023-02-22T02:11:54.997Z,16.50
2023-02-22T02:14:22.941Z,17.00
2023-02-22T02:16:53.738Z,21.00
2023-02-22T02:19:52.604Z,20.00
2023-02-22T02:22:46.300Z,21.00
2023-02-22T02:25:50.142Z,20.00
2023-02-22T02:28:27.324Z,18.00
2023-02-22T02:31:21.158Z,12.00
2023-02-22T02:34:07.722Z,25.00
2023-02-22T02:36:50.148Z,20.33
2023-02-22T02:39:49.344Z,21.50
2023-02-22T02:42:22.931Z,20.00
2023-02-22T02:45:02.728Z,18.00
2023-02-22T02:47:37.117Z,19.00
2023-02-22T02:50:07.934Z,22.00
2023-02-22T02:52:39.367Z,14.33
2023-02-22T02:55:11.364Z,17.00
2023-02-22T02:57:42.448Z,20.67
2023-02-22T03:00:22.733Z,18.00
2023-02-22T03:03:10.720Z,20.00
2023-02-22T03:06:07.849Z,21.50
2023-02-22T03:08:45.128Z,20.00
2023-02-22T03:11:25.417Z,21.33
2023-02-22T03:14:21.955Z,24.00
2023-02-22T03:17:16.293Z,27.00
2023-02-22T03:19:57.961Z,25.00
2023-02-22T03:22:38.006Z,19.50
2023-02-22T03:25:10.532Z,19.50
2023-02-22T03:27:53.901Z,18.00
2023-02-22T03:30:45.708Z,21.00
2023-02-22T03:33:20.572Z,19.00
2023-02-22T03:35:56.934Z,17.00
2023-02-22T03:38:29.057Z,18.00
2023-02-22T03:41:01.519Z,16.00
2023-02-22T03:43:34.386Z,17.00
2023-02-22T03:46:06.374Z,15.00
2023-02-22T03:48:45.486Z,20.00
2023-02-22T03:51:16.869Z,18.00
2023-02-22T03:53:45.142Z,21.50
2023-02-22T03:56:20.846Z,25.50
2023-02-22T03:58:49.905Z,24.00
2023-02-22T04:01:20.051Z,22.00
2023-02-22T04:03:48.376Z,20.00
2023-02-22T04:08:46.756Z,17.00
2023-02-22T04:11:15.680Z,16.00
2023-02-22T04:13:43.846Z,21.50
2023-02-22T04:16:11.826Z,26.00
2023-02-22T04:18:40.246Z,15.00
2023-02-22T04:21:09.354Z,28.00
2023-02-22T04:23:43.608Z,31.00
2023-02-22T04:26:12.142Z,19.50
2023-02-22T04:28:40.169Z,21.00
2023-02-22T04:31:11.899Z,23.00
2023-02-22T04:33:40.077Z,22.50
2023-02-22T04:36:10.822Z,24.00
2023-02-22T04:38:39.023Z,25.00
2023-02-22T04:41:06.965Z,26.00
2023-02-22T04:43:35.191Z,33.00
2023-02-22T04:46:21.964Z,21.00
2023-02-22T04:48:50.187Z,24.00
2023-02-22T04:51:21.639Z,28.50
2023-02-22T04:54:04.294Z,21.00
2023-02-22T04:56:34.728Z,24.00
2023-02-22T04:59:02.973Z,23.00
2023-02-22T05:01:35.315Z,22.00
2023-02-22T05:04:05.139Z,31.00
2023-02-22T05:06:33.311Z,34.00
2023-02-22T05:09:01.286Z,21.50
2023-02-22T05:11:29.202Z,33.00
2023-02-22T05:13:57.127Z,31.00
2023-02-22T05:16:25.118Z,33.50
2023-02-22T05:18:52.979Z,38.00
2023-02-22T05:21:20.891Z,34.00
2023-02-22T05:23:48.700Z,35.00
2023-02-22T05:26:16.788Z,37.00
2023-02-22T05:28:44.995Z,31.00
2023-02-22T05:31:13.118Z,31.50
2023-02-22T05:33:41.061Z,31.00
2023-02-22T05:36:09.760Z,30.00
2023-02-22T05:38:43.488Z,32.50
2023-02-22T05:41:12.918Z,30.50
2023-02-22T05:43:41.401Z,29.00
2023-02-22T05:46:09.352Z,31.50
2023-02-22T05:48:37.322Z,31.00
2023-02-22T05:51:05.778Z,28.00
2023-02-22T05:53:33.608Z,38.00
2023-02-22T05:56:01.772Z,35.00
2023-02-22T05:58:29.696Z,36.00
2023-02-22T06:00:57.614Z,42.00
2023-02-22T06:03:25.635Z,39.50
2023-02-22T06:05:53.551Z,40.00
2023-02-22T06:08:21.431Z,44.00
2023-02-22T06:13:17.403Z,52.00
2023-02-22T06:15:45.342Z,54.00
2023-02-22T06:18:13.281Z,54.00
2023-02-22T06:20:41.509Z,48.00
2023-02-22T06:23:09.573Z,48.00
2023-02-22T06:25:37.515Z,54.50
2023-02-22T06:28:05.383Z,51.50
2023-02-22T06:30:33.589Z,49.00
2023-02-22T06:33:01.426Z,54.00
2023-02-22T06:35:29.329Z,54.00
2023-02-22T06:37:57.233Z,55.00
2023-02-22T06:40:29.493Z,60.00
2023-02-22T06:42:58.452Z,56.00
2023-02-22T06:45:26.728Z,56.50
2023-02-22T06:47:55.663Z,54.00
2023-02-22T06:50:28.986Z,53.67
2023-02-22T06:55:28.123Z,51.50
2023-02-22T06:57:56.642Z,50.00
2023-02-22T07:00:27.068Z,49.00
2023-02-22T07:02:55.589Z,51.50
2023-02-22T07:05:24.922Z,55.50
2023-02-22T07:07:55.141Z,55.00
2023-02-22T07:10:26.269Z,24.00
2023-02-22T07:12:54.542Z,51.00
2023-02-22T07:15:24.617Z,51.00
2023-02-22T07:17:52.777Z,48.00
2023-02-22T07:20:22.526Z,52.50
2023-02-22T07:22:54.009Z,50.00
2023-02-22T07:25:23.518Z,44.50
2023-02-22T07:27:53.080Z,37.00
2023-02-22T07:30:32.646Z,43.00
2023-02-22T07:33:04.072Z,39.00
2023-02-22T07:35:36.770Z,41.00
2023-02-22T07:40:34.550Z,36.00
2023-02-22T07:43:06.969Z,34.00
2023-02-22T07:45:35.934Z,35.00
2023-02-22T07:48:06.035Z,40.00
2023-02-22T07:50:34.947Z,41.00
2023-02-22T07:53:05.241Z,39.00
2023-02-22T07:55:34.345Z,31.00
2023-02-22T07:58:06.261Z,56.00
2023-02-22T08:00:39.840Z,64.00
2023-02-22T08:03:10.974Z,42.00
2023-02-22T08:05:40.869Z,38.50
2023-02-22T08:08:09.381Z,33.00
2023-02-22T08:10:37.725Z,27.00
2023-02-22T08:13:06.129Z,37.00
2023-02-22T08:15:36.934Z,34.00
2023-02-22T08:18:09.218Z,39.00
2023-02-22T08:20:38.753Z,37.00
2023-02-22T08:23:07.901Z,34.00
2023-02-22T08:25:36.355Z,31.50
2023-02-22T08:28:07.637Z,33.00
2023-02-22T08:30:39.785Z,34.00
2023-02-22T08:33:09.245Z,38.50
2023-02-22T08:35:37.304Z,43.50
2023-02-22T08:38:06.867Z,43.00
2023-02-22T08:40:37.170Z,38.00
2023-02-22T08:43:06.669Z,32.00
2023-02-22T08:45:35.006Z,27.00
2023-02-22T08:48:03.829Z,29.00
2023-02-22T08:50:33.741Z,32.00
2023-02-22T08:53:03.848Z,31.00
2023-02-22T08:55:36.292Z,30.00
2023-02-22T08:58:09.485Z,34.00
2023-02-22T09:00:39.359Z,26.00
2023-02-22T09:03:10.672Z,24.00
2023-02-22T09:05:39.022Z,23.00
2023-02-22T09:08:07.228Z,25.00
2023-02-22T09:10:35.532Z,23.00
2023-02-22T09:13:04.359Z,20.00
2023-02-22T09:15:35.887Z,25.00
2023-02-22T09:18:05.910Z,24.00
2023-02-22T09:20:36.045Z,18.00
2023-02-22T09:23:06.477Z,23.50
2023-02-22T09:25:34.470Z,17.67
2023-02-22T09:28:02.787Z,18.00
2023-02-22T09:30:34.081Z,18.50
2023-02-22T09:33:10.276Z,13.00
2023-02-22T09:35:46.516Z,21.00
2023-02-22T09:38:24.509Z,16.00
2023-02-22T09:41:15.009Z,14.00
2023-02-22T09:44:10.981Z,10.00
2023-02-22T09:46:42.191Z,10.00
2023-02-22T09:49:20.413Z,13.50
2023-02-22T09:52:00.857Z,12.00
2023-02-22T09:54:38.192Z,14.00
2023-02-22T09:59:43.902Z,13.50
2023-02-22T10:02:32.203Z,11.00
2023-02-22T10:05:12.423Z,10.00
2023-02-22T10:07:59.485Z,13.00
2023-02-22T10:10:35.151Z,14.00
2023-02-22T10:13:19.427Z,13.00
2023-02-22T10:15:51.593Z,18.50
2023-02-22T10:18:45.655Z,22.00
2023-02-22T10:21:19.600Z,23.00
2023-02-22T10:24:10.514Z,20.00
2023-02-22T10:26:43.334Z,14.50
2023-02-22T10:29:39.978Z,16.00
2023-02-22T10:32:16.844Z,17.00
2023-02-22T10:34:49.465Z,19.67
2023-02-22T10:37:17.287Z,20.00
2023-02-22T10:39:48.430Z,19.00
2023-02-22T10:42:16.696Z,16.00
2023-02-22T10:44:44.665Z,19.50
2023-02-22T10:47:17.855Z,18.50
2023-02-22T10:50:04.369Z,14.00
2023-02-22T10:52:34.607Z,16.00
2023-02-22T10:55:15.014Z,16.50
2023-02-22T10:57:49.771Z,23.00
2023-02-22T11:00:31.205Z,21.00
2023-02-22T11:02:59.093Z,23.00
2023-02-22T11:08:38.248Z,17.00
2023-02-22T11:11:24.670Z,18.50
2023-02-22T11:13:56.805Z,18.00
2023-02-22T11:16:36.233Z,16.00
2023-02-22T11:19:23.253Z,21.00
2023-02-22T11:21:56.147Z,25.50
2023-02-22T11:24:30.302Z,24.00
2023-02-22T11:27:05.979Z,19.00
2023-02-22T11:29:38.402Z,19.00
2023-02-22T11:32:22.500Z,17.50
2023-02-22T11:35:03.413Z,17.67
2023-02-22T11:37:37.353Z,19.00
2023-02-22T11:40:22.753Z,19.00
2023-02-22T11:43:11.113Z,12.00
2023-02-22T11:48:23.295Z,14.00
2023-02-22T11:51:32.979Z,19.00
2023-02-22T11:54:06.906Z,16.00
2023-02-22T11:56:40.303Z,14.00
2023-02-22T11:59:14.443Z,14.00
2023-02-22T12:02:00.530Z,15.00
2023-02-22T12:07:31.723Z,15.00
2023-02-22T12:10:05.640Z,10.00
2023-02-22T12:12:36.451Z,9.50
2023-02-22T12:15:13.922Z,10.00
2023-02-22T12:18:05.766Z,8.00
2023-02-22T12:20:40.786Z,7.00
2023-02-22T12:23:12.930Z,7.00
2023-02-22T12:26:05.628Z,8.33
2023-02-22T12:28:47.824Z,9.00
2023-02-22T12:31:23.418Z,9.50
2023-02-22T12:34:03.713Z,12.00
2023-02-22T12:36:46.748Z,10.00
2023-02-22T12:39:41.018Z,10.00
2023-02-22T12:42:26.120Z,8.00
2023-02-22T12:45:00.294Z,12.00
2023-02-22T12:47:37.547Z,13.00
2023-02-22T12:50:51.003Z,11.00
2023-02-22T12:54:26.098Z,9.00
2023-02-22T12:57:09.986Z,6.00
2023-02-22T12:59:38.347Z,6.00
2023-02-22T13:02:21.276Z,10.50
2023-02-22T13:04:49.692Z,9.00
2023-02-22T13:07:24.052Z,9.00
2023-02-22T13:10:23.479Z,9.00
2023-02-22T13:15:50.251Z,9.00
2023-02-22T13:18:31.480Z,9.00
2023-02-22T13:21:48.946Z,8.00
2023-02-22T13:24:30.448Z,8.50
2023-02-22T13:27:06.737Z,8.00
2023-02-22T13:29:55.702Z,9.00
2023-02-22T13:33:00.442Z,8.00
2023-02-22T13:35:55.590Z,8.00
2023-02-22T13:39:01.877Z,10.00
2023-02-22T13:41:55.349Z,8.00
2023-02-22T13:44:42.054Z,10.00
2023-02-22T13:48:08.345Z,3.50
2023-02-22T13:51:30.439Z,5.00
2023-02-22T13:54:06.353Z,5.00
2023-02-22T13:56:34.812Z,7.00
2023-02-22T13:59:04.884Z,4.00
2023-02-22T14:01:48.064Z,5.00
2023-02-22T14:04:42.332Z,9.00
2023-02-22T14:07:46.973Z,8.00
2023-02-22T14:10:50.763Z,7.00
2023-02-22T14:13:30.382Z,4.00
2023-02-22T14:16:02.391Z,6.00
2023-02-22T14:18:39.580Z,5.00
2023-02-22T14:21:10.545Z,4.00
2023-02-22T14:23:40.971Z,7.00
2023-02-22T14:26:30.458Z,6.00
2023-02-22T14:29:09.233Z,10.00
2023-02-22T14:31:43.606Z,6.00
2023-02-22T14:34:39.786Z,10.00
2023-02-22T14:37:11.953Z,7.00
2023-02-22T14:39:46.161Z,7.00
2023-02-22T14:42:17.988Z,4.00
2023-02-22T14:45:05.735Z,9.00
2023-02-22T14:47:50.219Z,7.00
2023-02-22T14:50:26.174Z,8.00
2023-02-22T14:53:03.006Z,10.00
2023-02-22T14:55:37.784Z,7.50
2023-02-22T14:58:12.255Z,8.00
2023-02-22T15:00:46.045Z,5.00
2023-02-22T15:03:37.863Z,4.00
2023-02-22T15:06:19.066Z,5.00
2023-02-22T15:08:49.185Z,4.00
2023-02-22T15:11:23.097Z,5.00
2023-02-22T15:13:54.074Z,3.00
2023-02-22T15:16:23.489Z,4.00
2023-02-22T15:18:58.096Z,7.00
2023-02-22T15:21:28.928Z,8.00
2023-02-22T15:24:03.824Z,9.67
2023-02-22T15:26:51.918Z,8.00
2023-02-22T15:29:29.484Z,10.00
2023-02-22T15:31:58.617Z,10.50
2023-02-22T15:34:33.543Z,9.00
2023-02-22T15:37:25.650Z,14.00
2023-02-22T15:39:59.604Z,9.00
2023-02-22T15:42:30.545Z,8.00
2023-02-22T15:44:58.850Z,8.00
2023-02-22T15:47:29.559Z,9.00
2023-02-22T15:50:28.951Z,7.00
2023-02-22T15:53:03.578Z,5.33
2023-02-22T15:55:38.500Z,8.00
2023-02-22T15:58:18.591Z,6.00
2023-02-22T16:01:08.899Z,6.00
2023-02-22T16:03:53.191Z,6.00
2023-02-22T16:06:38.371Z,4.00
2023-02-22T16:09:23.156Z,8.00
2023-02-22T16:11:53.414Z,7.00
2023-02-22T16:14:27.498Z,8.00
2023-02-22T16:17:31.095Z,7.00
2023-02-22T16:20:00.866Z,8.00
2023-02-22T16:22:37.279Z,10.50
2023-02-22T16:25:21.913Z,12.00
2023-02-22T16:28:06.329Z,12.50
2023-02-22T16:30:36.858Z,10.00
2023-02-22T16:33:13.769Z,14.00
2023-02-22T16:35:51.783Z,12.00
2023-02-22T16:38:21.246Z,12.50
2023-02-22T16:40:55.276Z,10.00
2023-02-22T16:43:26.212Z,9.00
2023-02-22T16:45:54.332Z,10.00
2023-02-22T16:48:27.782Z,13.00
2023-02-22T16:51:02.081Z,18.00
2023-02-22T16:53:32.874Z,14.00
2023-02-22T16:56:05.448Z,13.50
2023-02-22T16:58:37.601Z,13.00
2023-02-22T17:01:06.059Z,15.00
2023-02-22T17:03:34.098Z,8.50
2023-02-22T17:06:02.046Z,12.50
2023-02-22T17:08:30.783Z,17.00
2023-02-22T17:11:00.695Z,14.00
2023-02-22T17:13:29.471Z,16.00
2023-02-22T17:15:57.982Z,17.00
2023-02-22T17:18:28.751Z,20.00
2023-02-22T17:20:56.965Z,18.00
2023-02-22T17:23:24.958Z,20.00
2023-02-22T17:25:55.369Z,18.00
2023-02-22T17:28:25.272Z,14.50
2023-02-22T17:30:56.006Z,20.00
2023-02-22T17:33:27.256Z,17.00
2023-02-22T17:35:57.925Z,20.00
2023-02-22T17:38:29.096Z,20.00
2023-02-22T17:41:01.479Z,25.00
2023-02-22T17:43:29.562Z,24.50
2023-02-22T17:45:57.574Z,18.00
2023-02-22T17:48:26.562Z,26.50
2023-02-22T17:53:25.083Z,22.50
2023-02-22T17:55:53.267Z,23.33
2023-02-22T17:58:22.959Z,27.00
2023-02-22T18:00:52.155Z,26.00
2023-02-22T18:03:25.883Z,29.50
2023-02-22T18:05:57.794Z,26.00
2023-02-22T18:08:28.291Z,33.50
2023-02-22T18:10:56.688Z,35.50
2023-02-22T18:13:27.057Z,37.50
2023-02-22T18:16:00.303Z,40.00
2023-02-22T18:18:28.990Z,32.50
2023-02-22T18:20:59.896Z,24.00
2023-02-22T18:23:30.175Z,36.00
2023-02-22T18:26:10.003Z,36.00
2023-02-22T18:28:39.586Z,34.50
2023-02-22T18:31:16.788Z,30.00
2023-02-22T18:33:47.057Z,34.00
2023-02-22T18:36:16.403Z,35.50
2023-02-22T18:38:44.890Z,30.00
2023-02-22T18:41:18.570Z,27.50
2023-02-22T18:43:46.894Z,40.00
2023-02-22T18:46:20.291Z,38.00
2023-02-22T18:48:51.857Z,41.00
2023-02-22T18:51:19.827Z,37.50
2023-02-22T18:53:49.999Z,40.00
2023-02-22T18:56:22.522Z,39.00
2023-02-22T18:58:54.777Z,39.00
2023-02-22T19:01:23.101Z,40.00
2023-02-22T19:04:29.191Z,41.00
2023-02-22T19:06:57.762Z,40.50
2023-02-22T19:17:36.749Z,45.50
2023-02-22T19:20:07.161Z,53.00
2023-02-22T19:22:35.018Z,56.50
2023-02-22T19:25:04.629Z,56.50
2023-02-22T19:27:34.124Z,56.00
2023-02-22T19:30:03.934Z,58.00
2023-02-22T19:32:33.685Z,52.50
2023-02-22T19:35:06.879Z,54.50
2023-02-22T19:37:36.586Z,55.00
2023-02-22T19:40:08.965Z,58.50
2023-02-22T19:42:36.875Z,57.00
2023-02-22T19:45:04.986Z,56.00
2023-02-22T19:47:33.227Z,56.00
2023-02-22T19:52:29.715Z,52.00
2023-02-22T19:54:57.687Z,54.00
2023-02-22T19:57:26.784Z,48.00
2023-02-22T19:59:54.914Z,52.50
2023-02-22T20:02:27.366Z,50.00
2023-02-22T20:04:55.440Z,46.50
2023-02-22T20:07:23.310Z,53.00
2023-02-22T20:09:51.217Z,50.00
2023-02-22T20:12:19.118Z,54.00
2023-02-22T20:14:46.965Z,53.00
2023-02-22T20:17:14.903Z,46.00
2023-02-22T20:19:43.214Z,48.00
2023-02-22T20:22:11.745Z,52.50
2023-02-22T20:24:40.834Z,56.00
2023-02-22T20:27:16.707Z,53.50
2023-02-22T20:29:44.594Z,57.00
2023-02-22T20:32:14.868Z,56.50
2023-02-22T20:34:47.617Z,54.00
2023-02-22T20:37:15.980Z,51.00
2023-02-22T20:39:44.586Z,56.00
2023-02-22T20:42:12.470Z,49.00
2023-02-22T20:44:40.270Z,59.00
2023-02-22T20:47:08.130Z,57.50
2023-02-22T20:49:36.117Z,55.00
2023-02-22T20:52:04.117Z,50.00
2023-02-22T20:54:34.429Z,51.00
2023-02-22T20:57:02.413Z,53.50
2023-02-22T20:59:30.404Z,47.50
2023-02-22T21:01:58.315Z,54.50
2023-02-22T21:04:29.343Z,48.00
2023-02-22T21:06:57.194Z,52.00
2023-02-22T21:09:25.069Z,53.00
2023-02-22T21:11:53.003Z,53.00
2023-02-22T21:14:21.058Z,57.00
2023-02-22T21:16:51.283Z,51.50
2023-02-22T21:19:25.531Z,55.00
2023-02-22T21:21:59.888Z,57.00
2023-02-22T21:24:29.779Z,55.50
2023-02-22T21:27:00.633Z,60.00
2023-02-22T21:29:29.767Z,60.00
2023-02-22T21:31:58.086Z,55.00
2023-02-22T21:34:26.359Z,57.00
2023-02-22T21:36:54.465Z,57.00
2023-02-22T21:39:22.898Z,54.50
2023-02-22T21:41:52.289Z,51.00
2023-02-22T21:44:21.282Z,52.50
2023-02-22T21:46:49.955Z,48.00
2023-02-22T21:49:22.716Z,48.50
2023-02-22T21:51:51.950Z,53.50
2023-02-22T21:54:20.695Z,48.50
2023-02-22T21:56:49.760Z,46.50
2023-02-22T21:59:20.231Z,44.00
2023-02-22T22:01:55.845Z,42.00
2023-02-22T22:07:01.385Z,43.00
2023-02-22T22:09:33.382Z,40.00
2023-02-22T22:12:05.297Z,54.00
2023-02-22T22:14:35.347Z,52.00
2023-02-22T22:17:07.140Z,46.00
2023-02-22T22:19:39.432Z,49.50
2023-02-22T22:22:08.118Z,49.50
2023-02-22T22:24:36.805Z,47.00
2023-02-22T22:27:06.561Z,51.00
2023-02-22T22:29:34.683Z,49.00
2023-02-22T22:32:03.702Z,43.00
2023-02-22T22:34:34.095Z,47.00
2023-02-22T22:37:01.920Z,43.00
2023-02-22T22:39:30.183Z,47.00
2023-02-22T22:41:57.999Z,46.00
2023-02-22T22:44:32.733Z,45.50
2023-02-22T22:47:01.109Z,47.00
2023-02-22T22:49:31.397Z,42.00
2023-02-22T22:51:59.452Z,40.00
2023-02-22T22:54:27.384Z,44.00
2023-02-22T22:56:55.251Z,40.50
2023-02-22T22:59:23.095Z,41.50
2023-02-22T23:01:52.347Z,42.00
2023-02-22T23:04:21.572Z,30.00
2023-02-22T23:06:50.748Z,40.00
2023-02-22T23:09:31.663Z,34.00
2023-02-22T23:12:08.930Z,32.00
2023-02-22T23:14:44.367Z,30.50
2023-02-22T23:17:15.960Z,27.00
2023-02-22T23:19:45.131Z,34.67
2023-02-22T23:22:14.481Z,27.00
2023-02-22T23:24:44.563Z,26.00
2023-02-22T23:27:12.778Z,25.00
2023-02-22T23:29:42.534Z,21.00
2023-02-22T23:32:10.525Z,27.00
2023-02-22T23:34:41.473Z,18.50
2023-02-22T23:37:10.890Z,20.00
2023-02-22T23:39:39.093Z,22.00
2023-02-22T23:42:10.297Z,16.00
2023-02-22T23:44:39.881Z,21.00
2023-02-22T23:47:07.780Z,21.00
2023-02-22T23:49:36.039Z,24.33
2023-02-22T23:52:05.845Z,18.00
2023-02-22T23:54:40.254Z,17.00
2023-02-22T23:57:09.029Z,16.67
2023-02-22T23:59:40.523Z,21.00
